Terminal Aerodrome Forecast
Issued by NWS Wilmington, NC

Current Version | Previous Version | Graphics & Text | Print | Product List | Glossary Off
Versions: 1 2 3 4 5 6 7 8 9 10 11 12 13 14 15

000
FTUS42 KILM 301733
TAFILM
TAF
KILM 301733Z 3018/3118 14010G15KT P6SM VCSH SCT025
      TEMPO 3018/3022 3SM SHRA BKN025
     FM302200 13008KT P6SM SCT025 OVC040
      TEMPO 3022/3101 3SM SHRA BKN025
     FM310100 10004KT P6SM VCSH BKN040 BKN100
     FM310700 05003KT 3SM BR SCT006
     FM311300 08007KT P6SM VCTS SCT030CB BKN040=

USA.gov is the U.S. government's official web portal to all federal, state and local government web resources and services.